sensor_id;sensor_type;location;lat;lon;timestamp;temperature;humidity
975;DHT22;6115;49.296;10.602;2023-07-30T00:00:41;19.40;75.80
975;DHT22;6115;49.296;10.602;2023-07-30T00:05:41;19.40;76.10
975;DHT22;6115;49.296;10.602;2023-07-30T00:10:42;19.30;76.20
975;DHT22;6115;49.296;10.602;2023-07-30T00:15:42;19.30;76.60
975;DHT22;6115;49.296;10.602;2023-07-30T00:20:43;19.20;77.00
975;DHT22;6115;49.296;10.602;2023-07-30T00:25:43;19.10;77.20
975;DHT22;6115;49.296;10.602;2023-07-30T00:30:46;19.20;77.30
975;DHT22;6115;49.296;10.602;2023-07-30T00:35:47;19.30;77.20
975;DHT22;6115;49.296;10.602;2023-07-30T00:40:48;19.30;77.20
975;DHT22;6115;49.296;10.602;2023-07-30T00:45:48;19.40;77.30
975;DHT22;6115;49.296;10.602;2023-07-30T00:50:49;19.40;77.40
975;DHT22;6115;49.296;10.602;2023-07-30T00:55:50;19.30;77.40
975;DHT22;6115;49.296;10.602;2023-07-30T01:00:52;19.30;78.00
975;DHT22;6115;49.296;10.602;2023-07-30T01:05:53;19.20;78.60
975;DHT22;6115;49.296;10.602;2023-07-30T01:10:54;19.00;79.80
975;DHT22;6115;49.296;10.602;2023-07-30T01:15:56;18.90;81.10
975;DHT22;6115;49.296;10.602;2023-07-30T01:20:59;18.80;82.00
975;DHT22;6115;49.296;10.602;2023-07-30T01:26:08;18.70;82.60
975;DHT22;6115;49.296;10.602;2023-07-30T01:31:11;18.60;82.50
975;DHT22;6115;49.296;10.602;2023-07-30T01:36:15;18.50;83.60
975;DHT22;6115;49.296;10.602;2023-07-30T01:41:16;18.50;84.70
975;DHT22;6115;49.296;10.602;2023-07-30T01:46:17;18.40;85.50
975;DHT22;6115;49.296;10.602;2023-07-30T01:51:17;18.40;86.20
975;DHT22;6115;49.296;10.602;2023-07-30T01:56:18;18.30;87.10
975;DHT22;6115;49.296;10.602;2023-07-30T02:01:18;18.30;87.00
975;DHT22;6115;49.296;10.602;2023-07-30T02:06:19;18.20;87.00
975;DHT22;6115;49.296;10.602;2023-07-30T02:11:19;18.10;86.90
975;DHT22;6115;49.296;10.602;2023-07-30T02:16:20;18.10;87.30
975;DHT22;6115;49.296;10.602;2023-07-30T02:21:21;18.00;87.70
975;DHT22;6115;49.296;10.602;2023-07-30T02:26:21;18.00;88.00
975;DHT22;6115;49.296;10.602;2023-07-30T02:31:22;18.00;88.30
975;DHT22;6115;49.296;10.602;2023-07-30T02:36:23;18.00;88.50
975;DHT22;6115;49.296;10.602;2023-07-30T02:41:23;17.90;88.50
975;DHT22;6115;49.296;10.602;2023-07-30T02:46:24;17.90;88.60
975;DHT22;6115;49.296;10.602;2023-07-30T02:51:25;18.00;88.90
975;DHT22;6115;49.296;10.602;2023-07-30T02:56:25;18.00;89.20
975;DHT22;6115;49.296;10.602;2023-07-30T03:01:26;18.00;89.10
975;DHT22;6115;49.296;10.602;2023-07-30T03:06:26;18.00;89.20
975;DHT22;6115;49.296;10.602;2023-07-30T03:11:27;18.00;90.00
975;DHT22;6115;49.296;10.602;2023-07-30T03:16:27;18.10;89.20
975;DHT22;6115;49.296;10.602;2023-07-30T03:21:28;18.10;89.20
975;DHT22;6115;49.296;10.602;2023-07-30T03:26:28;18.00;88.80
975;DHT22;6115;49.296;10.602;2023-07-30T03:31:29;18.00;88.90
975;DHT22;6115;49.296;10.602;2023-07-30T03:36:29;18.00;88.70
975;DHT22;6115;49.296;10.602;2023-07-30T03:41:30;18.00;88.70
975;DHT22;6115;49.296;10.602;2023-07-30T03:46:30;18.00;88.80
975;DHT22;6115;49.296;10.602;2023-07-30T03:51:31;18.00;88.80
975;DHT22;6115;49.296;10.602;2023-07-30T03:56:32;18.00;88.80
975;DHT22;6115;49.296;10.602;2023-07-30T04:01:32;18.00;88.80
975;DHT22;6115;49.296;10.602;2023-07-30T04:06:34;17.90;88.70
975;DHT22;6115;49.296;10.602;2023-07-30T04:11:34;18.00;88.80
975;DHT22;6115;49.296;10.602;2023-07-30T04:16:35;18.00;88.50
975;DHT22;6115;49.296;10.602;2023-07-30T04:21:35;17.90;88.40
975;DHT22;6115;49.296;10.602;2023-07-30T04:26:36;17.90;88.70
975;DHT22;6115;49.296;10.602;2023-07-30T04:31:36;17.90;88.80
975;DHT22;6115;49.296;10.602;2023-07-30T04:36:37;17.90;88.90
975;DHT22;6115;49.296;10.602;2023-07-30T04:41:37;18.00;89.70
975;DHT22;6115;49.296;10.602;2023-07-30T04:46:38;18.00;88.80
975;DHT22;6115;49.296;10.602;2023-07-30T04:51:38;18.10;88.90
975;DHT22;6115;49.296;10.602;2023-07-30T04:56:39;18.10;88.50
975;DHT22;6115;49.296;10.602;2023-07-30T05:01:40;18.00;87.70
975;DHT22;6115;49.296;10.602;2023-07-30T05:06:40;18.00;87.90
975;DHT22;6115;49.296;10.602;2023-07-30T05:11:41;18.00;88.10
975;DHT22;6115;49.296;10.602;2023-07-30T05:16:41;18.00;87.90
975;DHT22;6115;49.296;10.602;2023-07-30T05:21:42;18.00;86.80
975;DHT22;6115;49.296;10.602;2023-07-30T05:26:42;18.10;86.90
975;DHT22;6115;49.296;10.602;2023-07-30T05:31:43;18.10;87.30
975;DHT22;6115;49.296;10.602;2023-07-30T05:36:43;18.30;87.70
975;DHT22;6115;49.296;10.602;2023-07-30T05:41:44;18.30;87.10
975;DHT22;6115;49.296;10.602;2023-07-30T05:46:44;18.40;87.20
975;DHT22;6115;49.296;10.602;2023-07-30T05:51:45;18.50;87.30
975;DHT22;6115;49.296;10.602;2023-07-30T05:56:46;18.70;87.00
975;DHT22;6115;49.296;10.602;2023-07-30T06:01:46;18.70;85.50
975;DHT22;6115;49.296;10.602;2023-07-30T06:06:47;18.70;84.90
975;DHT22;6115;49.296;10.602;2023-07-30T06:11:47;18.70;84.50
975;DHT22;6115;49.296;10.602;2023-07-30T06:16:48;18.70;84.40
975;DHT22;6115;49.296;10.602;2023-07-30T06:21:48;18.70;84.00
975;DHT22;6115;49.296;10.602;2023-07-30T06:26:49;18.80;84.00
975;DHT22;6115;49.296;10.602;2023-07-30T06:31:49;18.90;84.20
975;DHT22;6115;49.296;10.602;2023-07-30T06:36:50;19.00;83.40
975;DHT22;6115;49.296;10.602;2023-07-30T06:41:53;19.10;83.80
975;DHT22;6115;49.296;10.602;2023-07-30T06:46:53;19.20;82.50
975;DHT22;6115;49.296;10.602;2023-07-30T06:51:54;19.40;82.80
975;DHT22;6115;49.296;10.602;2023-07-30T06:56:55;19.50;81.10
975;DHT22;6115;49.296;10.602;2023-07-30T07:01:55;19.50;80.70
975;DHT22;6115;49.296;10.602;2023-07-30T07:06:56;19.40;79.80
975;DHT22;6115;49.296;10.602;2023-07-30T07:11:57;19.50;80.00
975;DHT22;6115;49.296;10.602;2023-07-30T07:16:58;19.70;79.30
975;DHT22;6115;49.296;10.602;2023-07-30T07:21:58;19.50;77.90
975;DHT22;6115;49.296;10.602;2023-07-30T07:26:59;19.50;78.60
975;DHT22;6115;49.296;10.602;2023-07-30T07:32:00;19.40;78.50
975;DHT22;6115;49.296;10.602;2023-07-30T07:37:01;19.60;80.20
975;DHT22;6115;49.296;10.602;2023-07-30T07:42:02;19.60;79.30
975;DHT22;6115;49.296;10.602;2023-07-30T07:47:03;19.60;78.70
975;DHT22;6115;49.296;10.602;2023-07-30T07:52:03;19.60;79.40
975;DHT22;6115;49.296;10.602;2023-07-30T07:57:04;19.60;78.70
975;DHT22;6115;49.296;10.602;2023-07-30T08:02:05;19.60;78.70
975;DHT22;6115;49.296;10.602;2023-07-30T08:07:06;19.70;78.80
975;DHT22;6115;49.296;10.602;2023-07-30T08:12:06;19.90;77.20
975;DHT22;6115;49.296;10.602;2023-07-30T08:17:07;20.00;76.40
975;DHT22;6115;49.296;10.602;2023-07-30T08:22:08;20.10;76.50
975;DHT22;6115;49.296;10.602;2023-07-30T08:27:08;20.10;75.40
975;DHT22;6115;49.296;10.602;2023-07-30T08:32:09;20.30;75.10
975;DHT22;6115;49.296;10.602;2023-07-30T08:37:09;20.50;76.10
975;DHT22;6115;49.296;10.602;2023-07-30T08:42:10;20.40;74.60
975;DHT22;6115;49.296;10.602;2023-07-30T08:47:11;20.50;74.70
975;DHT22;6115;49.296;10.602;2023-07-30T08:52:11;20.50;75.70
975;DHT22;6115;49.296;10.602;2023-07-30T08:57:12;20.70;74.90
975;DHT22;6115;49.296;10.602;2023-07-30T09:02:30;20.70;74.00
975;DHT22;6115;49.296;10.602;2023-07-30T09:07:30;20.70;73.50
975;DHT22;6115;49.296;10.602;2023-07-30T09:12:35;20.60;74.40
975;DHT22;6115;49.296;10.602;2023-07-30T09:17:36;20.80;75.00
975;DHT22;6115;49.296;10.602;2023-07-30T09:22:37;21.00;73.20
975;DHT22;6115;49.296;10.602;2023-07-30T09:27:40;21.00;72.70
975;DHT22;6115;49.296;10.602;2023-07-30T09:32:40;20.90;71.40
975;DHT22;6115;49.296;10.602;2023-07-30T09:37:41;20.90;72.10
975;DHT22;6115;49.296;10.602;2023-07-30T09:42:43;20.90;70.30
975;DHT22;6115;49.296;10.602;2023-07-30T09:47:50;20.70;70.70
975;DHT22;6115;49.296;10.602;2023-07-30T09:52:51;20.60;72.60
975;DHT22;6115;49.296;10.602;2023-07-30T09:57:52;20.40;74.60
975;DHT22;6115;49.296;10.602;2023-07-30T10:02:55;20.10;75.40
975;DHT22;6115;49.296;10.602;2023-07-30T10:08:08;19.20;75.50
975;DHT22;6115;49.296;10.602;2023-07-30T10:13:10;18.50;77.90
975;DHT22;6115;49.296;10.602;2023-07-30T10:18:12;18.60;82.50
975;DHT22;6115;49.296;10.602;2023-07-30T10:23:13;18.80;84.00
975;DHT22;6115;49.296;10.602;2023-07-30T10:28:33;19.10;85.00
975;DHT22;6115;49.296;10.602;2023-07-30T10:38:44;19.40;82.50
975;DHT22;6115;49.296;10.602;2023-07-30T10:43:50;19.60;80.80
975;DHT22;6115;49.296;10.602;2023-07-30T10:48:50;19.80;82.10
975;DHT22;6115;49.296;10.602;2023-07-30T10:53:51;20.10;81.00
975;DHT22;6115;49.296;10.602;2023-07-30T10:58:53;20.30;79.40
975;DHT22;6115;49.296;10.602;2023-07-30T11:03:54;20.40;77.10
975;DHT22;6115;49.296;10.602;2023-07-30T11:08:54;20.60;78.30
975;DHT22;6115;49.296;10.602;2023-07-30T11:13:55;20.80;74.10
975;DHT22;6115;49.296;10.602;2023-07-30T11:18:56;20.80;72.20
975;DHT22;6115;49.296;10.602;2023-07-30T11:23:57;20.80;70.30
975;DHT22;6115;49.296;10.602;2023-07-30T11:28:57;20.60;69.70
975;DHT22;6115;49.296;10.602;2023-07-30T11:33:58;20.30;69.40
975;DHT22;6115;49.296;10.602;2023-07-30T11:38:59;20.20;69.70
975;DHT22;6115;49.296;10.602;2023-07-30T11:44:00;20.30;67.60
975;DHT22;6115;49.296;10.602;2023-07-30T11:49:17;20.50;66.70
975;DHT22;6115;49.296;10.602;2023-07-30T11:54:20;20.60;63.80
975;DHT22;6115;49.296;10.602;2023-07-30T11:59:21;21.10;62.50
975;DHT22;6115;49.296;10.602;2023-07-30T12:04:24;21.20;60.40
975;DHT22;6115;49.296;10.602;2023-07-30T12:09:25;21.30;59.30
975;DHT22;6115;49.296;10.602;2023-07-30T12:14:28;21.50;54.20
975;DHT22;6115;49.296;10.602;2023-07-30T12:19:32;21.80;54.80
975;DHT22;6115;49.296;10.602;2023-07-30T12:24:33;22.30;53.30
975;DHT22;6115;49.296;10.602;2023-07-30T12:29:34;22.20;51.90
975;DHT22;6115;49.296;10.602;2023-07-30T12:34:34;22.20;52.80
975;DHT22;6115;49.296;10.602;2023-07-30T12:39:35;22.20;51.90
975;DHT22;6115;49.296;10.602;2023-07-30T12:44:35;22.20;50.10
975;DHT22;6115;49.296;10.602;2023-07-30T12:49:36;22.50;50.80
975;DHT22;6115;49.296;10.602;2023-07-30T12:54:36;22.80;50.20
975;DHT22;6115;49.296;10.602;2023-07-30T12:59:38;23.00;48.10
975;DHT22;6115;49.296;10.602;2023-07-30T13:04:38;23.20;47.80
975;DHT22;6115;49.296;10.602;2023-07-30T13:09:39;23.30;46.90
975;DHT22;6115;49.296;10.602;2023-07-30T13:14:39;23.50;45.40
975;DHT22;6115;49.296;10.602;2023-07-30T13:19:40;23.60;45.40
975;DHT22;6115;49.296;10.602;2023-07-30T13:24:40;23.30;44.00
975;DHT22;6115;49.296;10.602;2023-07-30T13:29:41;23.60;43.80
975;DHT22;6115;49.296;10.602;2023-07-30T13:34:42;23.30;43.50
975;DHT22;6115;49.296;10.602;2023-07-30T13:39:42;23.40;45.70
975;DHT22;6115;49.296;10.602;2023-07-30T13:44:43;23.20;46.00
975;DHT22;6115;49.296;10.602;2023-07-30T13:49:43;23.20;45.50
975;DHT22;6115;49.296;10.602;2023-07-30T13:54:44;22.90;44.90
975;DHT22;6115;49.296;10.602;2023-07-30T13:59:45;23.00;45.50
975;DHT22;6115;49.296;10.602;2023-07-30T14:04:46;23.60;46.40
975;DHT22;6115;49.296;10.602;2023-07-30T14:09:46;23.70;43.90
975;DHT22;6115;49.296;10.602;2023-07-30T14:14:47;23.40;43.60
975;DHT22;6115;49.296;10.602;2023-07-30T14:19:47;23.50;44.40
975;DHT22;6115;49.296;10.602;2023-07-30T14:24:48;23.40;41.00
975;DHT22;6115;49.296;10.602;2023-07-30T14:29:48;23.30;41.20
975;DHT22;6115;49.296;10.602;2023-07-30T14:34:49;23.10;40.10
975;DHT22;6115;49.296;10.602;2023-07-30T14:39:49;23.10;40.50
975;DHT22;6115;49.296;10.602;2023-07-30T14:44:50;23.10;40.70
975;DHT22;6115;49.296;10.602;2023-07-30T14:49:50;23.40;41.40
975;DHT22;6115;49.296;10.602;2023-07-30T14:54:54;23.40;40.90
975;DHT22;6115;49.296;10.602;2023-07-30T14:59:54;23.80;41.10
975;DHT22;6115;49.296;10.602;2023-07-30T15:04:55;23.90;39.50
975;DHT22;6115;49.296;10.602;2023-07-30T15:09:55;23.80;39.20
975;DHT22;6115;49.296;10.602;2023-07-30T15:14:56;24.10;38.60
975;DHT22;6115;49.296;10.602;2023-07-30T15:19:57;23.90;37.30
975;DHT22;6115;49.296;10.602;2023-07-30T15:25:00;23.60;39.00
975;DHT22;6115;49.296;10.602;2023-07-30T15:30:00;23.20;38.90
975;DHT22;6115;49.296;10.602;2023-07-30T15:35:01;23.20;39.60
975;DHT22;6115;49.296;10.602;2023-07-30T15:40:02;23.30;39.80
975;DHT22;6115;49.296;10.602;2023-07-30T15:45:03;23.30;38.70
975;DHT22;6115;49.296;10.602;2023-07-30T15:50:04;23.30;38.30
975;DHT22;6115;49.296;10.602;2023-07-30T15:55:05;23.20;39.50
975;DHT22;6115;49.296;10.602;2023-07-30T16:00:06;23.20;38.90
975;DHT22;6115;49.296;10.602;2023-07-30T16:05:09;23.00;38.60
975;DHT22;6115;49.296;10.602;2023-07-30T16:10:09;23.00;40.50
975;DHT22;6115;49.296;10.602;2023-07-30T16:15:10;22.90;40.00
975;DHT22;6115;49.296;10.602;2023-07-30T16:20:10;22.80;40.20
975;DHT22;6115;49.296;10.602;2023-07-30T16:25:11;22.70;39.80
975;DHT22;6115;49.296;10.602;2023-07-30T16:30:12;22.50;39.90
975;DHT22;6115;49.296;10.602;2023-07-30T16:35:12;22.40;40.00
975;DHT22;6115;49.296;10.602;2023-07-30T16:40:13;22.40;41.40
975;DHT22;6115;49.296;10.602;2023-07-30T16:45:13;22.40;41.10
975;DHT22;6115;49.296;10.602;2023-07-30T16:50:14;22.10;41.20
975;DHT22;6115;49.296;10.602;2023-07-30T16:55:15;21.90;42.30
975;DHT22;6115;49.296;10.602;2023-07-30T17:00:15;21.90;42.30
975;DHT22;6115;49.296;10.602;2023-07-30T17:05:16;21.90;42.30
975;DHT22;6115;49.296;10.602;2023-07-30T17:10:17;21.90;42.30
975;DHT22;6115;49.296;10.602;2023-07-30T17:15:17;21.90;43.00
975;DHT22;6115;49.296;10.602;2023-07-30T17:20:18;21.90;41.80
975;DHT22;6115;49.296;10.602;2023-07-30T17:25:19;21.60;42.00
975;DHT22;6115;49.296;10.602;2023-07-30T17:30:19;21.50;42.00
975;DHT22;6115;49.296;10.602;2023-07-30T17:35:20;21.40;41.90
975;DHT22;6115;49.296;10.602;2023-07-30T17:40:20;21.20;42.40
975;DHT22;6115;49.296;10.602;2023-07-30T17:45:23;21.20;43.10
975;DHT22;6115;49.296;10.602;2023-07-30T17:50:23;21.00;43.10
975;DHT22;6115;49.296;10.602;2023-07-30T17:55:24;21.00;43.40
975;DHT22;6115;49.296;10.602;2023-07-30T18:00:25;20.90;43.50
975;DHT22;6115;49.296;10.602;2023-07-30T18:05:25;20.80;43.90
975;DHT22;6115;49.296;10.602;2023-07-30T18:10:26;20.60;43.00
975;DHT22;6115;49.296;10.602;2023-07-30T18:15:27;20.50;43.10
975;DHT22;6115;49.296;10.602;2023-07-30T18:20:28;20.50;43.30
975;DHT22;6115;49.296;10.602;2023-07-30T18:25:28;20.40;43.40
975;DHT22;6115;49.296;10.602;2023-07-30T18:30:30;20.30;43.30
975;DHT22;6115;49.296;10.602;2023-07-30T18:35:31;20.30;42.80
975;DHT22;6115;49.296;10.602;2023-07-30T18:40:35;20.20;42.80
975;DHT22;6115;49.296;10.602;2023-07-30T18:45:36;20.00;43.30
975;DHT22;6115;49.296;10.602;2023-07-30T18:50:36;20.00;43.70
975;DHT22;6115;49.296;10.602;2023-07-30T18:55:37;19.90;44.00
975;DHT22;6115;49.296;10.602;2023-07-30T19:00:37;19.70;44.20
975;DHT22;6115;49.296;10.602;2023-07-30T19:05:38;19.60;44.20
975;DHT22;6115;49.296;10.602;2023-07-30T19:10:38;19.50;44.30
975;DHT22;6115;49.296;10.602;2023-07-30T19:15:39;19.50;45.00
975;DHT22;6115;49.296;10.602;2023-07-30T19:20:40;19.40;44.90
975;DHT22;6115;49.296;10.602;2023-07-30T19:25:47;19.30;45.50
975;DHT22;6115;49.296;10.602;2023-07-30T19:30:47;19.20;45.70
975;DHT22;6115;49.296;10.602;2023-07-30T19:35:48;19.10;45.90
975;DHT22;6115;49.296;10.602;2023-07-30T19:40:50;18.90;46.40
975;DHT22;6115;49.296;10.602;2023-07-30T19:45:54;18.80;46.30
975;DHT22;6115;49.296;10.602;2023-07-30T19:50:55;18.70;46.60
975;DHT22;6115;49.296;10.602;2023-07-30T19:55:55;18.70;46.30
975;DHT22;6115;49.296;10.602;2023-07-30T20:00:57;18.60;46.60
975;DHT22;6115;49.296;10.602;2023-07-30T20:06:03;18.60;46.50
975;DHT22;6115;49.296;10.602;2023-07-30T20:11:05;18.60;46.40
975;DHT22;6115;49.296;10.602;2023-07-30T20:16:13;18.50;46.40
975;DHT22;6115;49.296;10.602;2023-07-30T20:21:13;18.50;46.90
975;DHT22;6115;49.296;10.602;2023-07-30T20:26:15;18.50;47.20
975;DHT22;6115;49.296;10.602;2023-07-30T20:31:17;18.60;47.40
975;DHT22;6115;49.296;10.602;2023-07-30T20:36:19;18.50;47.20
975;DHT22;6115;49.296;10.602;2023-07-30T20:41:19;18.40;47.30
975;DHT22;6115;49.296;10.602;2023-07-30T20:46:20;18.30;47.50
975;DHT22;6115;49.296;10.602;2023-07-30T20:51:20;18.30;47.70
975;DHT22;6115;49.296;10.602;2023-07-30T20:56:21;18.20;48.30
975;DHT22;6115;49.296;10.602;2023-07-30T21:01:22;18.20;48.50
975;DHT22;6115;49.296;10.602;2023-07-30T21:06:23;18.10;48.40
975;DHT22;6115;49.296;10.602;2023-07-30T21:11:23;18.20;48.50
975;DHT22;6115;49.296;10.602;2023-07-30T21:16:24;18.20;48.50
975;DHT22;6115;49.296;10.602;2023-07-30T21:21:25;18.10;48.40
975;DHT22;6115;49.296;10.602;2023-07-30T21:26:25;18.10;48.40
975;DHT22;6115;49.296;10.602;2023-07-30T21:31:26;18.10;48.40
975;DHT22;6115;49.296;10.602;2023-07-30T21:36:26;18.10;48.40
975;DHT22;6115;49.296;10.602;2023-07-30T21:41:27;18.00;48.30
975;DHT22;6115;49.296;10.602;2023-07-30T21:46:27;18.00;48.30
975;DHT22;6115;49.296;10.602;2023-07-30T21:51:28;18.00;48.30
975;DHT22;6115;49.296;10.602;2023-07-30T21:56:28;18.00;48.30
975;DHT22;6115;49.296;10.602;2023-07-30T22:01:29;17.90;49.10
975;DHT22;6115;49.296;10.602;2023-07-30T22:06:29;17.90;49.10
975;DHT22;6115;49.296;10.602;2023-07-30T22:11:30;17.80;49.50
975;DHT22;6115;49.296;10.602;2023-07-30T22:16:31;17.80;49.70
975;DHT22;6115;49.296;10.602;2023-07-30T22:21:32;17.80;50.00
975;DHT22;6115;49.296;10.602;2023-07-30T22:26:33;17.70;50.00
975;DHT22;6115;49.296;10.602;2023-07-30T22:31:33;17.70;50.40
975;DHT22;6115;49.296;10.602;2023-07-30T22:36:34;17.70;50.40
975;DHT22;6115;49.296;10.602;2023-07-30T22:41:35;17.60;50.70
975;DHT22;6115;49.296;10.602;2023-07-30T22:46:35;17.50;50.90
975;DHT22;6115;49.296;10.602;2023-07-30T22:51:36;17.50;51.10
975;DHT22;6115;49.296;10.602;2023-07-30T22:56:36;17.50;51.50
975;DHT22;6115;49.296;10.602;2023-07-30T23:01:37;17.40;51.60
975;DHT22;6115;49.296;10.602;2023-07-30T23:06:37;17.40;51.80
975;DHT22;6115;49.296;10.602;2023-07-30T23:11:38;17.40;52.00
975;DHT22;6115;49.296;10.602;2023-07-30T23:16:38;17.40;52.20
975;DHT22;6115;49.296;10.602;2023-07-30T23:21:39;17.40;52.30
975;DHT22;6115;49.296;10.602;2023-07-30T23:26:39;17.40;52.30
975;DHT22;6115;49.296;10.602;2023-07-30T23:31:41;17.40;52.30
975;DHT22;6115;49.296;10.602;2023-07-30T23:36:41;17.40;52.30
975;DHT22;6115;49.296;10.602;2023-07-30T23:41:42;17.30;52.20
975;DHT22;6115;49.296;10.602;2023-07-30T23:46:42;17.30;52.30
975;DHT22;6115;49.296;10.602;2023-07-30T23:51:45;17.20;52.30
975;DHT22;6115;49.296;10.602;2023-07-30T23:56:45;17.20;52.60
